createdAt,value
2019-03-20T00:33:12.644Z,46.90
2019-03-20T00:46:35.284Z,47.00
2019-03-20T00:59:58.101Z,47.00
2019-03-20T01:22:21.616Z,47.00
2019-03-20T01:35:44.455Z,47.00
2019-03-20T01:49:07.219Z,47.10
2019-03-20T02:02:25.050Z,47.20
2019-03-20T02:28:38.142Z,47.20
2019-03-20T02:41:45.514Z,47.20
2019-03-20T03:07:57.422Z,47.10
2019-03-20T03:34:10.307Z,47.00
2019-03-20T03:47:17.665Z,46.90
2019-03-20T04:00:25.022Z,46.80
2019-03-20T04:13:32.329Z,46.80
2019-03-20T04:26:39.640Z,46.60
2019-03-20T04:40:03.589Z,46.60
2019-03-20T04:53:26.428Z,46.60
2019-03-20T05:06:57.947Z,46.50
2019-03-20T05:20:12.072Z,46.60
2019-03-20T05:33:34.870Z,46.40
2019-03-20T05:46:57.670Z,46.40
2019-03-20T06:26:28.606Z,46.30
2019-03-20T06:39:35.980Z,46.30
2019-03-20T06:52:43.287Z,46.40
2019-03-20T07:05:50.595Z,46.60
2019-03-20T07:18:57.912Z,47.00
2019-03-20T07:32:21.902Z,48.80
2019-03-20T07:45:44.741Z,49.80
2019-03-20T07:59:07.545Z,50.00
2019-03-20T08:12:30.377Z,50.00
2019-03-20T08:25:53.181Z,49.40
2019-03-20T08:39:15.984Z,49.30
2019-03-20T08:52:38.773Z,49.60
2019-03-20T09:06:01.624Z,50.10
2019-03-20T09:19:24.464Z,50.20
2019-03-20T09:32:47.311Z,49.90
2019-03-20T09:46:10.036Z,49.90
2019-03-20T09:59:32.859Z,49.80
2019-03-20T10:12:55.703Z,49.80
2019-03-20T10:26:18.521Z,49.70
2019-03-20T10:39:41.324Z,49.70
2019-03-20T10:53:04.144Z,49.60
2019-03-20T11:06:26.961Z,49.80
2019-03-20T11:19:49.763Z,50.60
2019-03-20T11:33:12.597Z,52.00
2019-03-20T11:46:35.405Z,53.60
2019-03-20T11:59:58.219Z,53.10
2019-03-20T12:13:21.058Z,51.90
2019-03-20T12:26:43.841Z,51.80
2019-03-20T12:40:06.656Z,51.60
2019-03-20T12:53:29.476Z,51.60
2019-03-20T13:13:58.347Z,51.50
2019-03-20T13:27:21.103Z,51.50
2019-03-20T13:40:43.931Z,51.40
2019-03-20T14:07:08.402Z,51.00
2019-03-20T14:20:15.669Z,51.70
2019-03-20T14:33:22.991Z,52.90
2019-03-20T14:46:30.256Z,54.90
2019-03-20T14:59:37.529Z,54.90
2019-03-20T15:13:01.705Z,53.80
2019-03-20T15:26:24.503Z,53.40
2019-03-20T15:39:47.341Z,53.00
2019-03-20T15:53:10.136Z,52.60
2019-03-20T16:19:34.622Z,52.50
2019-03-20T16:32:41.878Z,52.50
2019-03-20T16:45:49.158Z,52.40
2019-03-20T16:58:56.471Z,52.30
2019-03-20T17:12:03.778Z,52.20
2019-03-20T17:25:27.925Z,52.60
2019-03-20T17:38:50.753Z,52.60
2019-03-20T17:52:13.563Z,53.10
2019-03-20T18:05:36.403Z,53.90
2019-03-20T18:18:59.245Z,54.10
2019-03-20T18:32:22.025Z,55.60
2019-03-20T18:58:46.694Z,57.40
2019-03-20T19:11:54.091Z,56.20
2019-03-20T19:25:01.489Z,56.20
2019-03-20T19:38:08.800Z,56.90
2019-03-20T19:51:16.163Z,56.80
2019-03-20T20:04:39.804Z,56.80
2019-03-20T20:18:02.732Z,56.80
2019-03-20T20:31:25.522Z,57.00
2019-03-20T20:44:48.258Z,57.00
2019-03-20T20:58:11.117Z,57.10
2019-03-20T21:11:33.907Z,57.30
2019-03-20T21:24:56.743Z,56.90
2019-03-20T21:38:19.591Z,56.70
2019-03-20T21:51:42.344Z,56.80
2019-03-20T22:05:05.160Z,56.60
2019-03-20T22:18:27.979Z,56.70
2019-03-20T22:31:50.905Z,56.30
2019-03-20T22:45:13.611Z,56.20
2019-03-20T22:58:36.439Z,56.50
2019-03-20T23:11:59.277Z,56.20
2019-03-20T23:25:22.044Z,56.60
2019-03-20T23:38:44.858Z,56.60
2019-03-20T23:52:07.702Z,56.60
